Wednesday, June 20, 2018, 5:20 PM EDT
Back to Local

KVAY, Mt Holly South Jersey Rgnl

Location: Medford, NJ, United States Lat: 39.933
Local Time: 5:20 PM EDT (21:20 GMT) Lon: -74.833
Time Zone: US/Eastern Elev: 52 ft

Show me the last for .
Show Decoded

2018-06-20 16:54 METAR KVAY 202054Z AUTO 00000KT 10SM OVC060 27/21 A2977 RMK AO2 SLP081 T02720206
                 58012 =
2018-06-20 15:54 METAR KVAY 201954Z AUTO VRB06KT 10SM FEW050 OVC060 27/21 A2979 RMK AO2 SLP088
                 T02670206 =
2018-06-20 14:54 METAR KVAY 201854Z AUTO VRB05KT 10SM BKN065 29/16 A2980 RMK AO2 SLP092 T02940161
                 =
2018-06-20 13:54 METAR KVAY 201754Z AUTO VRB04KT 10SM FEW060 29/16 A2981 RMK AO2 SLP093 T02940161
                 10300 20217 58021 =
2018-06-20 12:54 METAR KVAY 201654Z AUTO 26006KT 10SM FEW050 29/16 A2984 RMK AO2 SLP103 T02890161
                 =
2018-06-20 11:54 METAR KVAY 201554Z AUTO 00000KT 10SM SCT044 SCT050 28/18 A2985 RMK AO2 SLP109
                 T02780178 =
2018-06-20 10:54 METAR KVAY 201454Z AUTO 00000KT 10SM SCT042 27/19 A2987 RMK AO2 SLP114 T02670189
                 58006 =
2018-06-20 09:54 METAR KVAY 201354Z AUTO 00000KT 10SM FEW026 BKN033 25/18 A2988 RMK AO2 SLP118
                 T02500178 =
2018-06-20 09:52 METAR KVAY 201352Z AUTO VRB03KT 10SM SCT026 BKN033 BKN043 25/18 A2988 RMK AO2 =
2018-06-20 09:33 METAR KVAY 201333Z AUTO 00000KT 10SM BKN026 24/17 A2989 RMK AO2 T02440172 =
2018-06-20 08:54 METAR KVAY 201254Z AUTO VRB03KT 10SM FEW044 23/16 A2989 RMK AO2 SLP120 T02330161
                 =
2018-06-20 07:54 METAR KVAY 201154Z AUTO 10005KT 10SM CLR 22/18 A2989 RMK AO2 SLP120 T02170178
                 10217 20167 51007 =
2018-06-20 06:54 METAR KVAY 201054Z AUTO 07003KT 10SM CLR 19/17 A2989 RMK AO2 SLP120 T01890167 =
2018-06-20 06:46 METAR KVAY 201046Z AUTO 00000KT 10SM FEW005 19/17 A2988 RMK AO2 T01940167 =
2018-06-20 05:54 METAR KVAY 200954Z AUTO 00000KT 10SM CLR 17/17 A2987 RMK AO2 SLP115 T01720167 =
2018-06-20 04:54 METAR KVAY 200854Z AUTO 00000KT 10SM OVC065 17/16 A2987 RMK AO2 SLP113 T01720156
                 53002 =
2018-06-20 03:54 METAR KVAY 200754Z AUTO 00000KT 10SM CLR 17/16 A2985 RMK AO2 SLP108 T01720156 =
2018-06-20 02:54 METAR KVAY 200654Z AUTO 00000KT 10SM CLR 17/16 A2986 RMK AO2 SLP112 T01720156 =
2018-06-20 01:54 METAR KVAY 200554Z AUTO 00000KT 10SM CLR 18/16 A2986 RMK AO2 SLP112 T01830161
                 10278 20178 58001 =
2018-06-20 00:54 METAR KVAY 200454Z AUTO 00000KT 10SM CLR 18/17 A2987 RMK AO2 SLP115 T01830167
                 403060183 =
2018-06-19 23:54 METAR KVAY 200354Z AUTO 00000KT 10SM CLR 19/17 A2987 RMK AO2 SLP113 T01940167 =
2018-06-19 22:54 METAR KVAY 200254Z AUTO 00000KT 10SM CLR 20/16 A2986 RMK AO2 SLP112 T02000161
                 51014 =
2018-06-19 21:54 METAR KVAY 200154Z AUTO 00000KT 10SM CLR 21/17 A2986 RMK AO2 SLP111 T02110172 =
2018-06-19 20:54 METAR KVAY 200054Z AUTO 00000KT 10SM CLR 22/17 A2984 RMK AO2 SLP103 T02220172 =
2018-06-19 19:54 METAR KVAY 192354Z AUTO 00000KT 10SM CLR 28/16 A2982 RMK AO2 SLP098 T02780156
                 10306 20278 53008 =
2018-06-19 18:54 METAR KVAY 192254Z AUTO 02006KT 10SM CLR 29/15 A2980 RMK AO2 SLP092 T02890150 =
2018-06-19 17:54 METAR KVAY 192154Z AUTO 36007KT 10SM CLR 29/15 A2979 RMK AO2 SLP087 T02940150 =

Support USWX by starting your Amazon purchase here.